createdAt,value
2018-11-12T00:00:13.766Z,11.20
2018-11-12T00:02:42.499Z,11.30
2018-11-12T00:05:11.269Z,11.30
2018-11-12T00:07:40.038Z,11.30
2018-11-12T00:10:09.101Z,11.30
2018-11-12T00:12:37.965Z,11.30
2018-11-12T00:15:07.650Z,11.20
2018-11-12T00:17:36.490Z,11.20
2018-11-12T00:20:05.745Z,11.20
2018-11-12T00:22:34.841Z,11.20
2018-11-12T00:25:03.563Z,11.20
2018-11-12T00:27:32.321Z,11.20
2018-11-12T00:30:01.020Z,11.20
2018-11-12T00:32:29.764Z,11.20
2018-11-12T00:34:58.565Z,11.20
2018-11-12T00:37:27.210Z,11.20
2018-11-12T00:39:55.854Z,11.10
2018-11-12T00:42:24.602Z,11.10
2018-11-12T00:44:53.260Z,11.10
2018-11-12T00:47:22.033Z,11.10
2018-11-12T00:49:50.706Z,11.10
2018-11-12T00:52:19.446Z,11.10
2018-11-12T00:54:49.090Z,11.10
2018-11-12T00:57:17.792Z,11.10
2018-11-12T00:59:46.493Z,11.10
2018-11-12T01:02:15.177Z,11.10
2018-11-12T01:04:50.473Z,11.20
2018-11-12T01:07:19.169Z,11.20
2018-11-12T01:09:47.860Z,11.20
2018-11-12T01:12:16.526Z,11.20
2018-11-12T01:14:45.228Z,11.20
2018-11-12T01:17:13.878Z,11.20
2018-11-12T01:19:42.558Z,11.10
2018-11-12T01:22:11.307Z,11.10
2018-11-12T01:24:40.007Z,11.10
2018-11-12T01:27:08.667Z,11.00
2018-11-12T01:29:37.404Z,11.00
2018-11-12T01:32:06.159Z,11.00
2018-11-12T01:34:34.873Z,11.00
2018-11-12T01:37:03.602Z,10.90
2018-11-12T01:39:32.302Z,10.90
2018-11-12T01:42:01.111Z,10.90
2018-11-12T01:44:29.756Z,10.90
2018-11-12T01:46:58.447Z,10.90
2018-11-12T01:49:27.100Z,10.90
2018-11-12T01:51:55.806Z,10.80
2018-11-12T01:54:24.497Z,10.80
2018-11-12T01:56:53.154Z,10.80
2018-11-12T01:59:21.830Z,10.70
2018-11-12T02:01:50.600Z,10.70
2018-11-12T02:04:19.277Z,10.60
2018-11-12T02:06:47.944Z,10.60
2018-11-12T02:09:16.642Z,10.60
2018-11-12T02:11:45.364Z,10.70
2018-11-12T02:14:14.016Z,10.70
2018-11-12T02:16:42.694Z,10.70
2018-11-12T02:19:11.394Z,10.70
2018-11-12T02:21:40.133Z,10.70
2018-11-12T02:24:08.867Z,10.80
2018-11-12T02:26:37.569Z,10.80
2018-11-12T02:29:06.461Z,10.80
2018-11-12T02:31:35.121Z,10.80
2018-11-12T02:34:03.899Z,10.80
2018-11-12T02:36:32.658Z,10.90
2018-11-12T02:39:01.376Z,10.90
2018-11-12T02:41:30.157Z,10.90
2018-11-12T02:43:58.878Z,10.90
2018-11-12T02:46:27.631Z,11.00
2018-11-12T02:48:56.393Z,11.10
2018-11-12T02:51:25.106Z,11.10
2018-11-12T02:53:53.790Z,11.10
2018-11-12T02:56:22.554Z,11.10
2018-11-12T02:58:51.313Z,11.00
2018-11-12T03:01:22.004Z,11.00
2018-11-12T03:03:51.584Z,11.00
2018-11-12T03:06:20.459Z,11.00
2018-11-12T03:08:49.224Z,11.00
2018-11-12T03:11:17.942Z,10.90
2018-11-12T03:13:46.701Z,10.90
2018-11-12T03:16:15.481Z,10.80
2018-11-12T03:18:44.302Z,10.80
2018-11-12T03:21:12.959Z,10.80
2018-11-12T03:23:41.627Z,10.80
2018-11-12T03:26:10.377Z,10.80
2018-11-12T03:28:39.067Z,10.80
2018-11-12T03:31:07.843Z,10.70
2018-11-12T03:33:36.523Z,10.60
2018-11-12T03:36:05.992Z,10.60
2018-11-12T03:38:34.806Z,10.60
2018-11-12T03:41:03.606Z,10.50
2018-11-12T03:43:32.325Z,10.50
2018-11-12T03:46:01.082Z,10.50
2018-11-12T03:48:29.809Z,10.50
2018-11-12T03:50:58.577Z,10.50
2018-11-12T03:53:27.391Z,10.50
2018-11-12T03:55:56.103Z,10.40
2018-11-12T03:58:24.941Z,10.40
2018-11-12T04:00:53.702Z,10.40
2018-11-12T04:03:22.412Z,10.30
2018-11-12T04:05:51.235Z,10.30
2018-11-12T04:08:19.960Z,10.30
2018-11-12T04:10:48.650Z,10.30
2018-11-12T04:13:17.403Z,10.30
2018-11-12T04:15:46.147Z,10.20
2018-11-12T04:18:14.896Z,10.20
2018-11-12T04:20:43.626Z,10.20
2018-11-12T04:23:12.378Z,10.20
2018-11-12T04:25:41.582Z,10.20
2018-11-12T04:28:10.313Z,10.20
2018-11-12T04:30:39.043Z,10.20
2018-11-12T04:33:07.789Z,10.20
2018-11-12T04:35:36.534Z,10.20
2018-11-12T04:38:05.319Z,10.20
2018-11-12T04:40:34.055Z,10.20
2018-11-12T04:43:02.756Z,10.20
2018-11-12T04:45:31.515Z,10.10
2018-11-12T04:48:00.302Z,10.20
2018-11-12T04:50:29.585Z,10.20
2018-11-12T04:52:58.357Z,10.20
2018-11-12T04:55:27.138Z,10.20
2018-11-12T04:57:55.890Z,10.20
2018-11-12T05:00:26.711Z,10.20
2018-11-12T05:02:55.581Z,10.20
2018-11-12T05:05:25.595Z,10.20
2018-11-12T05:07:54.382Z,10.20
2018-11-12T05:10:24.252Z,10.20
2018-11-12T05:12:53.356Z,10.20
2018-11-12T05:15:23.138Z,10.20
2018-11-12T05:17:51.937Z,10.20
2018-11-12T05:20:22.915Z,10.20
2018-11-12T05:22:51.688Z,10.20
2018-11-12T05:25:20.409Z,10.10
2018-11-12T05:27:49.259Z,10.10
2018-11-12T05:30:19.805Z,10.20
2018-11-12T05:32:48.543Z,10.20
2018-11-12T05:35:18.720Z,10.20
2018-11-12T05:37:47.488Z,10.20
2018-11-12T05:40:19.308Z,10.20
2018-11-12T05:42:48.189Z,10.20
2018-11-12T05:45:18.074Z,10.20
2018-11-12T05:47:46.855Z,10.10
2018-11-12T05:50:20.166Z,10.10
2018-11-12T05:52:50.942Z,10.10
2018-11-12T05:55:21.069Z,10.10
2018-11-12T05:57:49.814Z,10.20
2018-11-12T06:00:21.445Z,10.20
2018-11-12T06:02:50.205Z,10.20
2018-11-12T06:05:18.920Z,10.20
2018-11-12T06:07:47.672Z,10.20
2018-11-12T06:10:18.699Z,10.10
2018-11-12T06:12:47.548Z,10.10
2018-11-12T06:15:16.537Z,10.10
2018-11-12T06:17:45.981Z,10.10
2018-11-12T06:20:16.983Z,10.10
2018-11-12T06:22:45.750Z,10.10
2018-11-12T06:25:16.405Z,10.10
2018-11-12T06:27:45.174Z,10.20
2018-11-12T06:30:15.651Z,10.20
2018-11-12T06:32:44.365Z,10.20
2018-11-12T06:35:13.942Z,10.20
2018-11-12T06:37:43.319Z,10.30
2018-11-12T06:40:13.895Z,10.30
2018-11-12T06:42:42.733Z,10.30
2018-11-12T06:45:16.498Z,10.30
2018-11-12T06:47:46.050Z,10.30
2018-11-12T06:50:16.092Z,10.30
2018-11-12T06:52:44.908Z,10.30
2018-11-12T06:55:14.455Z,10.30
2018-11-12T06:57:43.513Z,10.30
2018-11-12T07:00:30.071Z,10.30
2018-11-12T07:02:58.806Z,10.30
2018-11-12T07:05:27.887Z,10.30
2018-11-12T07:07:56.548Z,10.30
2018-11-12T07:10:26.465Z,10.30
2018-11-12T07:12:55.906Z,10.40
2018-11-12T07:15:26.741Z,10.40
2018-11-12T07:17:55.471Z,10.40
2018-11-12T07:20:25.255Z,10.40
2018-11-12T07:22:54.336Z,10.40
2018-11-12T07:25:24.741Z,10.40
2018-11-12T07:27:53.388Z,10.40
2018-11-12T07:30:24.251Z,10.50
2018-11-12T07:32:54.003Z,10.40
2018-11-12T07:35:22.913Z,10.50
2018-11-12T07:37:52.741Z,10.50
2018-11-12T07:40:21.868Z,10.50
2018-11-12T07:42:50.594Z,10.40
2018-11-12T07:45:20.500Z,10.40
2018-11-12T07:47:50.052Z,10.50
2018-11-12T07:50:20.091Z,10.50
2018-11-12T07:52:48.860Z,10.50
2018-11-12T07:55:19.346Z,10.50
2018-11-12T07:57:49.323Z,10.60
2018-11-12T08:00:34.845Z,10.50
2018-11-12T08:03:06.769Z,10.60
2018-11-12T08:05:35.872Z,10.60
2018-11-12T08:08:04.663Z,10.60
2018-11-12T08:10:33.391Z,10.60
2018-11-12T08:13:02.219Z,10.60
2018-11-12T08:15:30.929Z,10.70
2018-11-12T08:17:59.693Z,10.70
2018-11-12T08:20:28.422Z,10.80
2018-11-12T08:22:57.122Z,10.80
2018-11-12T08:25:25.821Z,10.80
2018-11-12T08:27:54.505Z,10.80
2018-11-12T08:30:24.612Z,10.80
2018-11-12T08:32:55.428Z,10.80
2018-11-12T08:35:24.105Z,10.80
2018-11-12T08:37:53.314Z,10.90
2018-11-12T08:40:23.222Z,10.90
2018-11-12T08:42:51.908Z,10.80
2018-11-12T08:45:26.988Z,10.80
2018-11-12T08:47:56.427Z,10.90
2018-11-12T08:50:26.215Z,10.90
2018-11-12T08:52:55.746Z,10.90
2018-11-12T08:55:25.813Z,10.90
2018-11-12T08:57:56.001Z,11.00
2018-11-12T09:00:25.498Z,11.00
2018-11-12T09:02:54.202Z,11.00
2018-11-12T09:05:24.297Z,11.10
2018-11-12T09:07:54.459Z,11.20
2018-11-12T09:10:25.363Z,11.20
2018-11-12T09:12:54.043Z,11.50
2018-11-12T09:15:22.735Z,11.70
2018-11-12T09:17:51.415Z,11.80
2018-11-12T09:20:24.620Z,11.90
2018-11-12T09:22:53.608Z,11.90
2018-11-12T09:25:23.407Z,11.90
2018-11-12T09:27:52.202Z,11.70
2018-11-12T09:30:25.545Z,11.80
2018-11-12T09:32:54.303Z,11.90
2018-11-12T09:35:24.266Z,11.90
2018-11-12T09:37:53.920Z,11.90
2018-11-12T09:40:25.410Z,12.00
2018-11-12T09:42:54.176Z,12.00
2018-11-12T09:45:22.844Z,12.00
2018-11-12T09:47:51.674Z,12.00
2018-11-12T09:50:21.510Z,12.00
2018-11-12T09:52:51.383Z,12.00
2018-11-12T09:55:20.962Z,12.00
2018-11-12T09:57:55.290Z,12.00
2018-11-12T10:00:24.200Z,12.10
2018-11-12T10:02:53.356Z,12.20
2018-11-12T10:05:23.166Z,12.40
2018-11-12T10:08:02.163Z,12.60
2018-11-12T10:10:52.050Z,12.70
2018-11-12T10:13:22.209Z,12.80
2018-11-12T10:15:51.398Z,12.80
2018-11-12T10:18:17.698Z,12.70
2018-11-12T10:20:46.403Z,12.70
2018-11-12T10:23:15.126Z,12.80
2018-11-12T10:25:43.874Z,13.00
2018-11-12T10:28:12.546Z,13.10
2018-11-12T10:30:41.254Z,13.10
2018-11-12T10:33:09.925Z,13.20
2018-11-12T10:35:38.673Z,13.20
2018-11-12T10:38:08.226Z,13.30
2018-11-12T10:40:36.976Z,13.30
2018-11-12T10:43:05.755Z,13.10
2018-11-12T10:45:34.419Z,13.20
2018-11-12T10:48:03.177Z,13.10
2018-11-12T10:50:31.892Z,13.10
2018-11-12T10:53:00.567Z,13.00
2018-11-12T10:55:29.497Z,13.10
2018-11-12T10:57:58.398Z,13.00
2018-11-12T11:00:37.338Z,12.90
2018-11-12T11:03:14.955Z,13.00
2018-11-12T11:05:45.183Z,13.10
2018-11-12T11:08:14.030Z,13.10
2018-11-12T11:10:42.762Z,13.10
2018-11-12T11:13:11.546Z,13.10
2018-11-12T11:15:40.533Z,13.20
2018-11-12T11:18:09.239Z,13.20
2018-11-12T11:20:38.163Z,13.20
2018-11-12T11:23:06.918Z,13.20
2018-11-12T11:25:35.770Z,13.20
2018-11-12T11:28:11.161Z,13.20
2018-11-12T11:30:39.916Z,13.00
2018-11-12T11:33:08.663Z,13.00
2018-11-12T11:35:37.481Z,13.10
2018-11-12T11:38:06.366Z,13.40
2018-11-12T11:40:35.171Z,13.60
2018-11-12T11:43:03.934Z,13.50
2018-11-12T11:45:32.684Z,13.50
2018-11-12T11:48:01.539Z,13.70
2018-11-12T11:50:30.462Z,13.80
2018-11-12T11:52:58.991Z,13.80
2018-11-12T11:55:27.787Z,13.80
2018-11-12T11:57:56.532Z,13.90
2018-11-12T12:00:26.688Z,13.80
2018-11-12T12:02:56.715Z,13.80
2018-11-12T12:17:08.342Z,14.40
2018-11-12T12:19:37.006Z,14.70
2018-11-12T12:22:05.769Z,14.40
2018-11-12T12:27:26.496Z,14.60
2018-11-12T12:29:57.287Z,14.40
2018-11-12T12:32:25.993Z,14.20
2018-11-12T12:34:54.633Z,13.90
2018-11-12T12:37:23.306Z,13.70
2018-11-12T12:39:52.066Z,13.60
2018-11-12T12:42:20.908Z,13.50
2018-11-12T12:44:49.629Z,13.40
2018-11-12T12:47:18.289Z,13.30
2018-11-12T12:49:46.971Z,13.20
2018-11-12T12:52:15.640Z,13.20
2018-11-12T12:54:44.313Z,13.20
2018-11-12T12:57:12.966Z,13.10
2018-11-12T12:59:42.689Z,13.00
2018-11-12T13:02:12.087Z,13.00
2018-11-12T13:04:40.713Z,12.90
2018-11-12T13:07:09.355Z,12.90
2018-11-12T13:09:38.013Z,12.90
2018-11-12T13:12:06.743Z,12.80
2018-11-12T13:14:35.438Z,12.70
2018-11-12T13:17:04.102Z,12.60
2018-11-12T13:19:32.799Z,12.60
2018-11-12T13:22:01.529Z,12.70
2018-11-12T13:24:30.657Z,12.70
2018-11-12T13:26:59.357Z,12.60
2018-11-12T13:29:27.998Z,12.60
2018-11-12T13:31:56.633Z,12.60
2018-11-12T13:34:25.313Z,12.50
2018-11-12T13:36:53.978Z,12.40
2018-11-12T13:39:22.728Z,12.40
2018-11-12T13:41:51.356Z,12.40
2018-11-12T13:44:19.975Z,12.30
2018-11-12T13:46:53.953Z,12.30
2018-11-12T13:49:22.632Z,12.30
2018-11-12T13:51:51.342Z,12.30
2018-11-12T13:54:20.026Z,12.30
2018-11-12T13:56:48.710Z,12.30
2018-11-12T13:59:17.406Z,12.30
2018-11-12T14:01:46.026Z,12.30
2018-11-12T14:04:14.696Z,12.30
2018-11-12T14:06:43.413Z,12.30
2018-11-12T14:09:12.881Z,12.30
2018-11-12T14:11:41.588Z,12.30
2018-11-12T14:14:10.220Z,12.30
2018-11-12T14:16:38.906Z,12.30
2018-11-12T14:19:07.549Z,12.20
2018-11-12T14:21:36.463Z,12.20
2018-11-12T14:24:04.985Z,12.20
2018-11-12T14:26:33.860Z,12.20
2018-11-12T14:29:02.564Z,12.10
2018-11-12T14:31:31.285Z,12.10
2018-11-12T14:33:59.978Z,12.10
2018-11-12T14:36:28.605Z,12.10
2018-11-12T14:38:57.372Z,12.10
2018-11-12T14:41:26.072Z,12.00
2018-11-12T14:43:54.820Z,12.00
2018-11-12T14:46:23.575Z,12.00
2018-11-12T14:48:52.201Z,12.00
2018-11-12T14:51:20.900Z,12.00
2018-11-12T14:53:49.612Z,12.00
2018-11-12T14:56:18.302Z,12.00
2018-11-12T14:58:47.051Z,12.00
2018-11-12T15:01:15.701Z,12.00
2018-11-12T15:03:46.923Z,11.90
2018-11-12T15:06:15.812Z,11.90
2018-11-12T15:08:44.517Z,11.90
2018-11-12T15:11:13.543Z,11.90
2018-11-12T15:13:42.271Z,11.90
2018-11-12T15:16:10.981Z,11.90
2018-11-12T15:18:40.152Z,11.90
2018-11-12T15:21:08.863Z,11.90
2018-11-12T15:23:37.525Z,11.80
2018-11-12T15:26:06.595Z,11.80
2018-11-12T15:28:35.249Z,11.80
2018-11-12T15:31:03.922Z,11.70
2018-11-12T15:33:32.623Z,11.70
2018-11-12T15:36:01.325Z,11.70
2018-11-12T15:38:30.044Z,11.70
2018-11-12T15:40:58.713Z,11.60
2018-11-12T15:43:27.575Z,11.70
2018-11-12T15:45:56.307Z,11.70
2018-11-12T15:48:24.975Z,11.60
2018-11-12T15:50:53.790Z,11.60
2018-11-12T15:53:22.443Z,11.60
2018-11-12T15:55:51.098Z,11.60
2018-11-12T15:58:19.827Z,11.60
2018-11-12T16:00:48.526Z,11.50
2018-11-12T16:03:17.221Z,11.50
2018-11-12T16:05:45.926Z,11.50
2018-11-12T16:08:14.669Z,11.50
2018-11-12T16:10:43.343Z,11.50
2018-11-12T16:13:12.088Z,11.40
2018-11-12T16:15:40.756Z,11.40
2018-11-12T16:18:09.417Z,11.40
2018-11-12T16:20:38.110Z,11.40
2018-11-12T16:23:06.852Z,11.40
2018-11-12T16:25:42.064Z,11.40
2018-11-12T16:28:10.777Z,11.40
2018-11-12T16:30:39.494Z,11.40
2018-11-12T16:33:08.228Z,11.40
2018-11-12T16:35:36.928Z,11.40
2018-11-12T16:38:05.946Z,11.40
2018-11-12T16:40:34.663Z,11.40
2018-11-12T16:43:03.371Z,11.40
2018-11-12T16:45:32.040Z,11.30
2018-11-12T16:48:00.753Z,11.30
2018-11-12T16:50:29.482Z,11.30
2018-11-12T16:52:58.226Z,11.30
2018-11-12T16:55:26.894Z,11.30
2018-11-12T16:57:55.551Z,11.30
2018-11-12T17:00:25.058Z,11.30
2018-11-12T17:02:53.773Z,11.30
2018-11-12T17:05:23.830Z,11.30
2018-11-12T17:07:52.534Z,11.30
2018-11-12T17:10:22.927Z,11.30
2018-11-12T17:12:51.664Z,11.30
2018-11-12T17:15:20.342Z,11.30
2018-11-12T17:17:49.420Z,11.20
2018-11-12T17:20:19.600Z,11.20
2018-11-12T17:22:48.315Z,11.20
2018-11-12T17:25:23.772Z,11.20
2018-11-12T17:27:52.658Z,11.20
2018-11-12T17:30:22.219Z,11.20
2018-11-12T17:32:51.252Z,11.20
2018-11-12T17:35:21.131Z,11.20
2018-11-12T17:37:49.993Z,11.20
2018-11-12T17:40:20.882Z,11.20
2018-11-12T17:42:50.303Z,11.20
2018-11-12T17:45:20.419Z,11.10
2018-11-12T17:47:50.112Z,11.10
2018-11-12T17:50:18.878Z,11.10
2018-11-12T17:52:48.445Z,11.00
2018-11-12T17:55:17.160Z,11.00
2018-11-12T17:57:46.465Z,11.00
2018-11-12T18:00:18.512Z,11.00
2018-11-12T18:02:47.850Z,10.90
2018-11-12T18:05:16.587Z,10.90
2018-11-12T18:07:45.407Z,10.90
2018-11-12T18:10:15.073Z,10.90
2018-11-12T18:12:43.837Z,10.90
2018-11-12T18:15:21.051Z,10.90
2018-11-12T18:17:49.902Z,10.80
2018-11-12T18:20:20.729Z,10.80
2018-11-12T18:22:50.022Z,10.80
2018-11-12T18:25:18.702Z,10.70
2018-11-12T18:27:47.406Z,10.70
2018-11-12T18:30:19.598Z,10.70
2018-11-12T18:32:49.299Z,10.70
2018-11-12T18:35:18.017Z,10.60
2018-11-12T18:37:46.755Z,10.60
2018-11-12T18:40:16.961Z,10.60
2018-11-12T18:47:56.984Z,10.60
2018-11-12T18:50:27.636Z,10.60
2018-11-12T18:52:56.937Z,10.50
2018-11-12T18:55:25.612Z,10.50
2018-11-12T18:57:54.861Z,10.50
2018-11-12T19:00:24.593Z,10.50
2018-11-12T19:02:53.534Z,10.60
2018-11-12T19:05:24.667Z,10.60
2018-11-12T19:07:54.591Z,10.60
2018-11-12T19:10:25.593Z,10.60
2018-11-12T19:12:54.806Z,10.70
2018-11-12T19:15:25.061Z,10.80
2018-11-12T19:17:58.148Z,10.80
2018-11-12T19:20:26.877Z,10.80
2018-11-12T19:22:55.900Z,10.90
2018-11-12T19:25:25.031Z,10.90
2018-11-12T19:27:53.697Z,10.90
2018-11-12T19:30:24.740Z,10.90
2018-11-12T19:32:53.515Z,10.90
2018-11-12T19:35:23.775Z,10.90
2018-11-12T19:37:52.460Z,10.90
2018-11-12T19:40:22.529Z,10.80
2018-11-12T19:42:52.277Z,10.90
2018-11-12T19:45:21.015Z,10.80
2018-11-12T19:47:50.693Z,10.80
2018-11-12T19:50:20.834Z,10.80
2018-11-12T19:52:50.848Z,10.80
2018-11-12T19:55:19.666Z,10.80
2018-11-12T19:57:48.802Z,10.80
2018-11-12T20:00:19.506Z,10.80
2018-11-12T20:02:53.207Z,10.80
2018-11-12T20:05:21.897Z,10.80
2018-11-12T20:07:50.558Z,10.80
2018-11-12T20:10:20.634Z,10.80
2018-11-12T20:12:49.312Z,10.70
2018-11-12T20:15:19.282Z,10.70
2018-11-12T20:17:48.840Z,10.70
2018-11-12T20:20:20.019Z,10.80
2018-11-12T20:22:49.191Z,10.70
2018-11-12T20:25:18.728Z,10.70
2018-11-12T20:27:47.971Z,10.80
2018-11-12T20:30:19.850Z,10.70
2018-11-12T20:32:48.570Z,10.70
2018-11-12T20:35:17.250Z,10.70
2018-11-12T20:37:45.940Z,10.70
2018-11-12T20:40:15.590Z,10.70
2018-11-12T20:42:45.356Z,10.70
2018-11-12T20:45:15.405Z,10.70
2018-11-12T20:47:45.214Z,10.70
2018-11-12T20:50:14.846Z,10.70
2018-11-12T20:52:43.976Z,10.60
2018-11-12T20:55:13.760Z,10.60
2018-11-12T20:57:42.962Z,10.60
2018-11-12T21:00:17.205Z,10.60
2018-11-12T21:02:47.136Z,10.60
2018-11-12T21:05:16.470Z,10.50
2018-11-12T21:07:45.334Z,10.50
2018-11-12T21:10:15.710Z,10.50
2018-11-12T21:12:44.696Z,10.50
2018-11-12T21:15:14.343Z,10.50
2018-11-12T21:17:43.187Z,10.50
2018-11-12T21:20:16.778Z,10.50
2018-11-12T21:22:45.477Z,10.50
2018-11-12T21:25:15.619Z,10.60
2018-11-12T21:27:44.282Z,10.50
2018-11-12T21:30:17.291Z,10.50
2018-11-12T21:32:46.263Z,10.50
2018-11-12T21:35:14.955Z,10.40
2018-11-12T21:37:43.819Z,10.40
2018-11-12T21:40:14.947Z,10.40
2018-11-12T21:42:43.869Z,10.40
2018-11-12T21:45:14.079Z,10.40
2018-11-12T21:47:43.328Z,10.40
2018-11-12T21:50:14.034Z,10.30
2018-11-12T21:52:42.750Z,10.30
2018-11-12T21:55:12.208Z,10.40
2018-11-12T21:57:41.335Z,10.40
2018-11-12T22:00:20.861Z,10.40
2018-11-12T22:02:52.030Z,10.40
2018-11-12T22:05:20.865Z,10.30
2018-11-12T22:07:49.585Z,10.30
2018-11-12T22:10:18.753Z,10.30
2018-11-12T22:12:48.601Z,10.20
2018-11-12T22:15:17.260Z,10.20
2018-11-12T22:17:45.964Z,10.10
2018-11-12T22:20:15.954Z,10.10
2018-11-12T22:22:44.994Z,10.10
2018-11-12T22:25:14.940Z,10.10
2018-11-12T22:27:44.263Z,10.10
2018-11-12T22:30:18.996Z,10.10
2018-11-12T22:32:49.126Z,10.10
2018-11-12T22:35:17.827Z,10.10
2018-11-12T22:37:47.159Z,10.10
2018-11-12T22:40:17.432Z,10.10
2018-11-12T22:42:47.046Z,10.10
2018-11-12T22:45:17.084Z,10.10
2018-11-12T22:47:46.495Z,10.10
2018-11-12T22:50:15.139Z,10.10
2018-11-12T22:52:44.449Z,10.10
2018-11-12T22:55:14.541Z,10.10
2018-11-12T22:57:43.285Z,10.20
2018-11-12T23:00:21.522Z,10.20
2018-11-12T23:02:50.746Z,10.20
2018-11-12T23:05:19.846Z,10.20
2018-11-12T23:07:49.164Z,10.10
2018-11-12T23:10:19.035Z,10.10
2018-11-12T23:12:47.767Z,10.10
2018-11-12T23:15:16.821Z,10.10
2018-11-12T23:17:45.483Z,10.10
2018-11-12T23:20:17.386Z,10.10
2018-11-12T23:22:46.942Z,10.10
2018-11-12T23:25:15.612Z,10.10
2018-11-12T23:27:45.229Z,10.10
2018-11-12T23:30:15.416Z,10.00
2018-11-12T23:32:44.145Z,10.00
2018-11-12T23:35:14.993Z,10.00
2018-11-12T23:37:44.452Z,10.00
2018-11-12T23:40:13.641Z,9.90
2018-11-12T23:42:42.654Z,9.90
2018-11-12T23:45:11.362Z,9.90
2018-11-12T23:47:40.278Z,9.90
2018-11-12T23:50:11.067Z,9.90
2018-11-12T23:52:39.809Z,9.90
2018-11-12T23:55:08.588Z,9.90
2018-11-12T23:57:37.216Z,9.90
